Heimdal, North Dakota
Current Conditions -  °F | °C
As of 12:35 PM on Friday 31 Oct 2014 (Local Time) from K5H4 Reporting Station
Clear Clear  
Wind Chill: 20°   Ceiling: Unl
Heat Index: 32°   Visibility: 10mi
Dew Point: 18°   Wind: 21mph
Humidity: 55%   Direction: 170°S
Pressure: 30.43"   Gusts: 25mph
Location:  47.7822°N, 99.8441°W
Report Text: K5H4 311735Z AUTO 17018G22KT 10SM CLR 00/M08 A3043 RMK AO2
Loading
Personal Weather Stations






























Interactive Weather Map
Tropical Storm Tracking
New forecast layout! Learn more

10-Day Weather Forecast

Advertisements
Track Severe Weather on mobile